createdAt,value
2017-12-26T00:02:00.340Z,10.25
2017-12-26T00:04:29.866Z,10.18
2017-12-26T00:06:58.710Z,13.02
2017-12-26T00:09:27.438Z,8.90
2017-12-26T00:11:56.166Z,10.68
2017-12-26T00:14:24.911Z,12.52
2017-12-26T00:16:54.562Z,12.35
2017-12-26T00:19:23.299Z,11.75
2017-12-26T00:21:52.907Z,10.68
2017-12-26T00:24:22.399Z,12.65
2017-12-26T00:26:51.878Z,14.55
2017-12-26T00:29:20.594Z,13.48
2017-12-26T00:31:50.084Z,12.68
2017-12-26T00:34:18.899Z,10.55
2017-12-26T00:36:48.392Z,12.63
2017-12-26T00:39:17.895Z,13.70
2017-12-26T00:41:46.735Z,12.65
2017-12-26T00:44:15.455Z,12.90
2017-12-26T00:46:44.387Z,12.68
2017-12-26T00:49:13.890Z,15.50
2017-12-26T00:51:43.387Z,15.07
2017-12-26T00:54:12.855Z,15.13
2017-12-26T00:56:41.689Z,11.95
2017-12-26T00:59:11.167Z,14.23
2017-12-26T01:01:39.996Z,13.40
2017-12-26T01:04:08.710Z,13.70
2017-12-26T01:06:37.450Z,15.40
2017-12-26T01:09:06.165Z,17.00
2017-12-26T01:11:34.937Z,14.90
2017-12-26T01:14:04.419Z,15.70
2017-12-26T01:16:33.139Z,13.38
2017-12-26T01:19:01.963Z,19.62
2017-12-26T01:21:30.708Z,12.13
2017-12-26T01:24:00.324Z,12.80
2017-12-26T01:26:29.066Z,15.00
2017-12-26T01:28:57.852Z,12.85
2017-12-26T01:31:26.559Z,12.90
2017-12-26T01:33:55.327Z,15.07
2017-12-26T01:36:24.048Z,14.68
2017-12-26T01:38:52.902Z,14.10
2017-12-26T01:41:21.609Z,14.43
2017-12-26T01:43:50.339Z,14.68
2017-12-26T01:46:25.274Z,13.32
2017-12-26T01:48:54.024Z,14.10
2017-12-26T01:51:22.740Z,12.95
2017-12-26T01:53:52.407Z,12.02
2017-12-26T01:56:21.091Z,12.48
2017-12-26T01:58:49.810Z,13.35
2017-12-26T02:01:18.571Z,13.95
2017-12-26T02:03:47.286Z,15.65
2017-12-26T02:06:16.015Z,14.82
2017-12-26T02:08:44.746Z,14.15
2017-12-26T02:11:13.486Z,16.05
2017-12-26T02:13:42.235Z,12.95
2017-12-26T02:16:11.003Z,12.75
2017-12-26T02:18:39.698Z,11.65
2017-12-26T02:21:08.434Z,16.52
2017-12-26T02:23:37.903Z,12.02
2017-12-26T02:26:06.626Z,11.82
2017-12-26T02:28:36.083Z,9.80
2017-12-26T02:31:04.807Z,10.20
2017-12-26T02:33:33.496Z,7.70
2017-12-26T02:36:02.207Z,8.82
2017-12-26T02:38:30.930Z,10.20
2017-12-26T02:40:59.633Z,11.70
2017-12-26T02:43:28.370Z,13.23
2017-12-26T02:45:57.087Z,13.95
2017-12-26T02:48:25.816Z,16.87
2017-12-26T02:50:54.526Z,12.32
2017-12-26T02:53:24.012Z,13.05
2017-12-26T02:55:52.714Z,10.40
2017-12-26T02:58:22.187Z,8.95
2017-12-26T03:00:50.885Z,9.80
2017-12-26T03:03:19.603Z,6.72
2017-12-26T03:05:48.290Z,6.80
2017-12-26T03:08:17.763Z,6.22
2017-12-26T03:10:46.547Z,6.47
2017-12-26T03:13:15.284Z,5.00
2017-12-26T03:15:43.990Z,6.35
2017-12-26T03:18:12.762Z,6.07
2017-12-26T03:20:41.474Z,4.97
2017-12-26T03:23:10.182Z,6.37
2017-12-26T03:25:38.879Z,4.57
2017-12-26T03:28:07.588Z,5.10
2017-12-26T03:30:37.134Z,4.62
2017-12-26T03:33:05.991Z,5.50
2017-12-26T03:35:35.442Z,5.05
2017-12-26T03:38:04.165Z,4.80
2017-12-26T03:40:32.858Z,5.85
2017-12-26T03:43:01.595Z,4.37
2017-12-26T03:45:31.286Z,4.18
2017-12-26T03:47:59.995Z,4.70
2017-12-26T03:50:28.722Z,4.70
2017-12-26T03:52:57.430Z,4.87
2017-12-26T03:55:26.895Z,3.97
2017-12-26T03:57:55.607Z,4.10
2017-12-26T04:00:24.374Z,4.25
2017-12-26T04:02:53.130Z,4.50
2017-12-26T04:05:21.899Z,4.10
2017-12-26T04:07:51.407Z,4.12
2017-12-26T04:10:20.883Z,7.70
2017-12-26T04:12:49.575Z,4.93
2017-12-26T04:15:18.302Z,6.15
2017-12-26T04:17:47.022Z,4.60
2017-12-26T04:20:15.867Z,4.82
2017-12-26T04:22:45.331Z,4.05
2017-12-26T04:25:14.039Z,5.28
2017-12-26T04:27:42.743Z,5.90
2017-12-26T04:30:12.231Z,4.70
2017-12-26T04:32:40.928Z,4.95
2017-12-26T04:35:09.631Z,4.45
2017-12-26T04:37:39.147Z,4.37
2017-12-26T04:40:07.834Z,5.47
2017-12-26T04:42:36.546Z,11.70
2017-12-26T04:45:05.239Z,8.25
2017-12-26T04:47:33.946Z,7.30
2017-12-26T04:50:02.690Z,7.55
2017-12-26T04:52:31.558Z,8.90
2017-12-26T04:55:01.010Z,7.45
2017-12-26T04:57:29.926Z,9.13
2017-12-26T04:59:58.622Z,6.15
2017-12-26T05:02:27.478Z,7.70
2017-12-26T05:04:56.170Z,10.05
2017-12-26T05:07:24.949Z,9.90
2017-12-26T05:09:53.646Z,8.45
2017-12-26T05:12:22.355Z,9.15
2017-12-26T05:14:51.346Z,9.23
2017-12-26T05:17:20.123Z,12.68
2017-12-26T05:19:48.834Z,9.40
2017-12-26T05:22:17.770Z,9.88
2017-12-26T05:24:46.481Z,8.90
2017-12-26T05:27:15.173Z,9.68
2017-12-26T05:29:43.882Z,9.98
2017-12-26T05:32:12.586Z,9.48
2017-12-26T05:34:41.306Z,10.07
2017-12-26T05:37:10.758Z,9.55
2017-12-26T05:39:39.738Z,9.90
2017-12-26T05:42:08.435Z,9.73
2017-12-26T05:44:37.135Z,8.45
2017-12-26T05:47:05.894Z,10.55
2017-12-26T05:49:34.602Z,11.12
2017-12-26T05:52:03.323Z,10.13
2017-12-26T05:54:32.032Z,9.98
2017-12-26T05:57:01.634Z,9.05
2017-12-26T05:59:31.102Z,10.88
2017-12-26T06:01:59.810Z,8.88
2017-12-26T06:04:28.498Z,9.60
2017-12-26T06:06:57.209Z,8.68
2017-12-26T06:09:26.672Z,9.05
2017-12-26T06:11:55.375Z,9.43
2017-12-26T06:14:24.095Z,8.50
2017-12-26T06:16:53.570Z,8.52
2017-12-26T06:19:22.285Z,5.82
2017-12-26T06:21:50.974Z,4.55
2017-12-26T06:24:19.711Z,6.57
2017-12-26T06:26:48.398Z,4.87
2017-12-26T06:29:17.089Z,4.03
2017-12-26T06:31:45.827Z,4.93
2017-12-26T06:34:14.599Z,3.85
2017-12-26T06:36:44.070Z,6.65
2017-12-26T06:39:12.784Z,4.68
2017-12-26T06:41:41.467Z,3.72
2017-12-26T06:44:10.182Z,4.10
2017-12-26T06:46:38.870Z,4.35
2017-12-26T06:49:08.357Z,5.10
2017-12-26T06:51:37.890Z,4.80
2017-12-26T06:54:06.593Z,5.20
2017-12-26T06:56:35.322Z,4.82
2017-12-26T06:59:04.028Z,6.43
2017-12-26T07:01:32.821Z,4.80
2017-12-26T07:04:02.294Z,4.07
2017-12-26T07:06:30.990Z,3.45
2017-12-26T07:08:59.702Z,3.83
2017-12-26T07:11:29.279Z,5.03
2017-12-26T07:13:58.031Z,4.85
2017-12-26T07:16:26.722Z,4.53
2017-12-26T07:18:55.431Z,3.50
2017-12-26T07:21:29.524Z,3.92
2017-12-26T07:23:58.250Z,5.20
2017-12-26T07:26:26.988Z,5.62
2017-12-26T07:28:56.630Z,4.03
2017-12-26T07:31:25.346Z,3.92
2017-12-26T07:33:54.051Z,4.00
2017-12-26T07:36:23.570Z,5.05
2017-12-26T07:38:53.039Z,3.92
2017-12-26T07:41:21.751Z,4.20
2017-12-26T07:43:50.459Z,4.87
2017-12-26T07:46:19.928Z,4.22
2017-12-26T07:48:48.610Z,5.12
2017-12-26T07:51:17.319Z,5.35
2017-12-26T07:53:46.786Z,7.12
2017-12-26T07:56:15.518Z,7.70
2017-12-26T07:58:44.966Z,9.85
2017-12-26T08:01:13.683Z,7.40
2017-12-26T08:03:42.379Z,9.65
2017-12-26T08:06:11.092Z,7.50
2017-12-26T08:08:40.563Z,5.85
2017-12-26T08:11:09.282Z,6.15
2017-12-26T08:13:38.784Z,4.90
2017-12-26T08:16:08.246Z,6.30
2017-12-26T08:18:37.038Z,4.50
2017-12-26T08:21:05.835Z,5.00
2017-12-26T08:23:34.559Z,5.05
2017-12-26T08:26:04.022Z,6.72
2017-12-26T08:28:32.770Z,7.12
2017-12-26T08:31:01.491Z,4.20
2017-12-26T08:33:30.379Z,5.07
2017-12-26T08:35:59.113Z,5.70
2017-12-26T08:38:27.806Z,5.37
2017-12-26T08:40:57.293Z,5.87
2017-12-26T08:43:26.011Z,5.47
2017-12-26T08:45:55.505Z,5.97
2017-12-26T08:48:24.993Z,4.40
2017-12-26T08:50:53.690Z,5.78
2017-12-26T08:53:22.395Z,5.80
2017-12-26T08:55:51.966Z,4.15
2017-12-26T08:58:21.155Z,4.43
2017-12-26T09:00:49.861Z,4.18
2017-12-26T09:03:18.315Z,3.83
2017-12-26T09:05:46.767Z,4.40
2017-12-26T09:08:15.209Z,4.50
2017-12-26T09:10:44.386Z,4.87
2017-12-26T09:13:13.631Z,4.90
2017-12-26T09:15:42.085Z,5.63
2017-12-26T09:18:11.280Z,5.60
2017-12-26T09:20:40.483Z,5.27
2017-12-26T09:23:09.675Z,5.93
2017-12-26T09:25:39.034Z,5.87
2017-12-26T09:28:07.463Z,5.93
2017-12-26T09:30:36.651Z,4.73
2017-12-26T09:33:05.091Z,4.73
2017-12-26T09:35:33.592Z,5.07
2017-12-26T09:38:02.023Z,5.00
2017-12-26T09:40:30.474Z,4.80
2017-12-26T09:42:58.922Z,5.33
2017-12-26T09:45:27.355Z,4.70
2017-12-26T09:47:56.562Z,3.83
2017-12-26T09:50:24.992Z,4.67
2017-12-26T09:52:53.484Z,3.73
2017-12-26T09:55:21.931Z,4.13
2017-12-26T09:57:50.375Z,3.93
2017-12-26T10:00:19.562Z,7.40
2017-12-26T10:02:47.995Z,4.87
2017-12-26T10:05:16.455Z,7.87
2017-12-26T10:07:44.952Z,3.70
2017-12-26T10:10:13.378Z,3.73
2017-12-26T10:12:41.459Z,3.93
2017-12-26T10:15:09.889Z,3.10
2017-12-26T10:17:38.330Z,3.30
2017-12-26T10:20:07.531Z,4.03
2017-12-26T10:22:36.978Z,4.00
2017-12-26T10:25:06.495Z,5.40
2017-12-26T10:27:34.976Z,4.03
2017-12-26T10:30:03.413Z,3.30
2017-12-26T10:32:32.636Z,3.50
2017-12-26T10:35:01.089Z,3.27
2017-12-26T10:37:30.241Z,6.35
2017-12-26T10:39:59.852Z,3.10
2017-12-26T10:42:29.365Z,4.40
2017-12-26T10:44:58.805Z,2.40
2017-12-26T10:47:28.254Z,6.23
2017-12-26T10:49:57.751Z,2.60
2017-12-26T10:52:27.390Z,2.87
2017-12-26T10:54:56.843Z,2.07
2017-12-26T10:57:26.291Z,2.13
2017-12-26T10:59:55.749Z,2.47
2017-12-26T11:02:25.371Z,1.93
2017-12-26T11:04:54.819Z,2.40
2017-12-26T11:07:24.340Z,2.20
2017-12-26T11:09:54.319Z,2.30
2017-12-26T11:12:23.929Z,2.13
2017-12-26T11:14:53.417Z,3.40
2017-12-26T11:17:23.118Z,9.80
2017-12-26T11:19:52.997Z,23.85
2017-12-26T11:22:22.436Z,2.43
2017-12-26T11:24:52.167Z,6.15
2017-12-26T11:27:21.352Z,1.08
2017-12-26T11:29:51.079Z,0.80
2017-12-26T11:32:20.523Z,4.30
2017-12-26T11:34:50.250Z,1.10
2017-12-26T11:37:19.730Z,0.80
2017-12-26T11:39:49.443Z,0.77
2017-12-26T11:42:19.270Z,1.20
2017-12-26T11:44:48.999Z,1.70
2017-12-26T11:47:18.442Z,1.60
2017-12-26T11:49:48.006Z,0.77
2017-12-26T11:52:17.539Z,1.10
2017-12-26T11:54:47.543Z,1.95
2017-12-26T11:57:17.018Z,1.63
2017-12-26T11:59:46.734Z,0.70
2017-12-26T12:02:16.227Z,0.70
2017-12-26T12:04:45.102Z,0.60
2017-12-26T12:07:14.734Z,2.03
2017-12-26T12:09:44.173Z,1.57
2017-12-26T12:12:13.618Z,5.30
2017-12-26T12:14:43.086Z,22.93
2017-12-26T12:17:11.795Z,30.70
2017-12-26T12:19:41.326Z,1.30
2017-12-26T12:22:10.804Z,0.90
2017-12-26T12:24:40.076Z,2.50
2017-12-26T12:27:08.816Z,1.10
2017-12-26T12:29:37.417Z,1.10
2017-12-26T12:32:06.119Z,0.40
2017-12-26T12:34:34.566Z,0.70
2017-12-26T12:37:02.992Z,0.60
2017-12-26T12:39:31.696Z,0.45
2017-12-26T12:42:00.241Z,0.40
2017-12-26T12:44:28.733Z,0.40
2017-12-26T12:46:57.935Z,0.40
2017-12-26T12:49:26.511Z,0.50
2017-12-26T12:51:55.075Z,0.40
2017-12-26T12:54:24.540Z,0.40
2017-12-26T12:56:54.220Z,0.40
2017-12-26T12:59:23.657Z,0.50
2017-12-26T13:01:53.123Z,0.70
2017-12-26T13:04:22.588Z,0.40
2017-12-26T13:06:52.022Z,0.43
2017-12-26T13:09:21.627Z,0.60
2017-12-26T13:11:51.070Z,6.70
2017-12-26T13:14:20.755Z,0.83
2017-12-26T13:16:50.195Z,1.13
2017-12-26T13:19:19.767Z,5.03
2017-12-26T13:21:49.211Z,5.10
2017-12-26T13:24:18.658Z,5.33
2017-12-26T13:26:48.103Z,0.40
2017-12-26T13:29:17.573Z,0.50
2017-12-26T13:31:47.100Z,0.53
2017-12-26T13:34:16.381Z,0.50
2017-12-26T13:36:45.824Z,0.40
2017-12-26T13:39:15.295Z,1.00
2017-12-26T13:41:44.798Z,0.60
2017-12-26T13:44:14.317Z,0.50
2017-12-26T13:46:43.750Z,0.80
2017-12-26T13:49:13.218Z,0.40
2017-12-26T13:51:42.693Z,0.90
2017-12-26T13:54:12.122Z,0.40
2017-12-26T13:56:41.584Z,0.50
2017-12-26T13:59:11.006Z,0.40
2017-12-26T14:01:40.212Z,0.40
2017-12-26T14:04:09.413Z,0.50
2017-12-26T14:06:38.866Z,0.60
2017-12-26T14:09:08.293Z,0.40
2017-12-26T14:11:37.751Z,0.50
2017-12-26T14:14:07.251Z,0.40
2017-12-26T14:16:37.242Z,0.40
2017-12-26T14:19:06.675Z,0.40
2017-12-26T14:21:36.150Z,0.40
2017-12-26T14:24:05.601Z,0.40
2017-12-26T14:26:35.041Z,0.53
2017-12-26T14:29:04.327Z,0.53
2017-12-26T14:31:34.022Z,0.40
2017-12-26T14:34:02.462Z,13.17
2017-12-26T14:36:31.655Z,2.23
2017-12-26T14:39:00.879Z,0.50
2017-12-26T14:41:29.319Z,3.37
2017-12-26T14:43:57.787Z,18.90
2017-12-26T14:46:26.281Z,1.93
2017-12-26T14:48:55.511Z,0.50
2017-12-26T14:51:24.691Z,0.60
2017-12-26T14:53:53.909Z,0.63
2017-12-26T14:56:23.095Z,1.13
2017-12-26T14:58:52.336Z,3.00
2017-12-26T15:01:20.914Z,6.17
2017-12-26T15:03:50.374Z,0.70
2017-12-26T15:06:19.886Z,0.60
2017-12-26T15:08:48.366Z,0.83
2017-12-26T15:11:16.825Z,1.53
2017-12-26T15:13:45.274Z,0.60
2017-12-26T15:16:13.767Z,0.60
2017-12-26T15:18:42.192Z,1.50
2017-12-26T15:21:10.678Z,0.60
2017-12-26T15:23:40.005Z,0.90
2017-12-26T15:26:08.539Z,0.50
2017-12-26T15:28:36.985Z,0.73
2017-12-26T15:31:05.446Z,0.80
2017-12-26T15:33:33.878Z,0.50
2017-12-26T15:36:02.497Z,2.20
2017-12-26T15:38:32.018Z,1.40
2017-12-26T15:41:01.986Z,0.90
2017-12-26T15:43:30.407Z,0.60
2017-12-26T15:45:59.603Z,0.63
2017-12-26T15:48:28.962Z,0.80
2017-12-26T15:50:57.379Z,1.60
2017-12-26T15:53:25.835Z,0.83
2017-12-26T15:55:54.328Z,2.50
2017-12-26T15:58:22.783Z,4.97
2017-12-26T16:00:51.311Z,0.93
2017-12-26T16:03:19.773Z,0.70
2017-12-26T16:05:49.725Z,0.60
2017-12-26T16:08:18.190Z,0.80
2017-12-26T16:10:46.619Z,1.83
2017-12-26T16:13:15.098Z,0.70
2017-12-26T16:15:43.554Z,0.70
2017-12-26T16:18:12.751Z,0.60
2017-12-26T16:20:41.955Z,5.90
2017-12-26T16:23:11.184Z,0.70
2017-12-26T16:25:39.631Z,0.87
2017-12-26T16:28:08.847Z,1.03
2017-12-26T16:30:37.302Z,0.90
2017-12-26T16:33:06.560Z,0.90
2017-12-26T16:35:34.987Z,1.90
2017-12-26T16:38:04.194Z,0.83
2017-12-26T16:40:33.383Z,0.90
2017-12-26T16:43:02.627Z,0.90
2017-12-26T16:45:31.059Z,1.83
2017-12-26T16:47:59.508Z,5.57
2017-12-26T16:50:27.948Z,1.43
2017-12-26T16:52:56.396Z,1.40
2017-12-26T16:55:24.847Z,1.27
2017-12-26T16:57:53.273Z,1.43
2017-12-26T17:00:22.480Z,2.10
2017-12-26T17:02:51.726Z,2.97
2017-12-26T17:05:20.258Z,1.43
2017-12-26T17:07:49.447Z,3.60
2017-12-26T17:10:18.922Z,2.13
2017-12-26T17:12:47.350Z,1.57
2017-12-26T17:15:16.559Z,1.37
2017-12-26T17:17:45.791Z,1.57
2017-12-26T17:20:15.218Z,4.43
2017-12-26T17:22:44.679Z,2.97
2017-12-26T17:25:14.183Z,4.70
2017-12-26T17:27:43.646Z,1.77
2017-12-26T17:30:13.074Z,2.07
2017-12-26T17:32:42.285Z,1.47
2017-12-26T17:35:11.478Z,2.00
2017-12-26T17:37:40.679Z,1.37
2017-12-26T17:40:09.872Z,2.80
2017-12-26T17:42:38.738Z,3.20
2017-12-26T17:45:07.191Z,1.43
2017-12-26T17:47:35.619Z,1.77
2017-12-26T17:50:04.691Z,3.13
2017-12-26T17:52:33.111Z,2.37
2017-12-26T17:55:02.311Z,2.00
2017-12-26T17:57:30.443Z,4.50
2017-12-26T17:59:58.684Z,1.97
2017-12-26T18:02:27.159Z,1.77
2017-12-26T18:04:55.586Z,1.87
2017-12-26T18:07:24.036Z,2.50
2017-12-26T18:09:53.475Z,2.03
2017-12-26T18:12:21.940Z,2.60
2017-12-26T18:14:50.770Z,4.70
2017-12-26T18:17:19.964Z,2.60
2017-12-26T18:19:49.413Z,2.07
2017-12-26T18:22:18.855Z,2.40
2017-12-26T18:24:47.559Z,2.78
2017-12-26T18:27:15.996Z,1.93
2017-12-26T18:29:44.450Z,2.07
2017-12-26T18:32:13.150Z,2.28
2017-12-26T18:34:42.866Z,2.10
2017-12-26T18:37:12.234Z,2.00
2017-12-26T18:39:41.504Z,1.80
2017-12-26T18:42:10.965Z,2.07
2017-12-26T18:44:40.442Z,2.40
2017-12-26T18:47:09.977Z,1.60
2017-12-26T18:49:39.681Z,4.10
2017-12-26T18:52:09.414Z,3.08
2017-12-26T18:54:38.877Z,3.13
2017-12-26T18:57:08.629Z,1.70
2017-12-26T18:59:38.338Z,1.90
2017-12-26T19:02:07.800Z,3.53
2017-12-26T19:04:37.237Z,2.53
2017-12-26T19:07:06.685Z,2.93
2017-12-26T19:09:36.143Z,2.53
2017-12-26T19:12:05.609Z,2.40
2017-12-26T19:14:35.085Z,3.70
2017-12-26T19:17:04.829Z,4.18
2017-12-26T19:19:34.295Z,2.30
2017-12-26T19:22:03.764Z,5.07
2017-12-26T19:24:33.227Z,3.20
2017-12-26T19:27:02.678Z,2.50
2017-12-26T19:29:32.524Z,2.33
2017-12-26T19:32:01.969Z,2.70
2017-12-26T19:34:31.533Z,5.33
2017-12-26T19:37:01.015Z,5.50
2017-12-26T19:39:30.738Z,3.97
2017-12-26T19:42:00.467Z,3.80
2017-12-26T19:44:29.937Z,3.60
2017-12-26T19:46:59.693Z,6.97
2017-12-26T19:49:29.417Z,2.97
2017-12-26T19:51:59.114Z,3.30
2017-12-26T19:54:28.853Z,5.37
2017-12-26T19:56:58.553Z,2.40
2017-12-26T19:59:28.275Z,3.55
2017-12-26T20:01:57.982Z,2.55
2017-12-26T20:04:27.706Z,4.28
2017-12-26T20:06:57.437Z,4.60
2017-12-26T20:09:27.166Z,6.65
2017-12-26T20:11:56.894Z,5.82
2017-12-26T20:14:26.614Z,5.47
2017-12-26T20:16:56.137Z,4.60
2017-12-26T20:19:25.861Z,5.85
2017-12-26T20:21:55.637Z,4.22
2017-12-26T20:24:25.549Z,4.12
2017-12-26T20:26:55.346Z,6.87
2017-12-26T20:29:25.051Z,6.07
2017-12-26T20:31:54.765Z,4.53
2017-12-26T20:34:24.506Z,4.82
2017-12-26T20:36:54.242Z,4.70
2017-12-26T20:39:23.956Z,6.07
2017-12-26T20:41:53.690Z,4.60
2017-12-26T20:44:23.422Z,3.80
2017-12-26T20:46:53.142Z,5.07
2017-12-26T20:49:22.876Z,6.12
2017-12-26T20:51:52.610Z,3.87
2017-12-26T20:54:22.358Z,5.80
2017-12-26T20:56:52.089Z,5.50
2017-12-26T20:59:21.787Z,6.57
2017-12-26T21:01:51.497Z,5.50
2017-12-26T21:04:21.191Z,6.68
2017-12-26T21:06:50.938Z,6.05
2017-12-26T21:09:20.640Z,6.87
2017-12-26T21:11:50.354Z,5.90
2017-12-26T21:14:20.069Z,5.22
2017-12-26T21:16:49.803Z,5.87
2017-12-26T21:19:19.537Z,3.58
2017-12-26T21:21:49.282Z,4.55
2017-12-26T21:24:19.038Z,5.40
2017-12-26T21:26:48.754Z,5.03
2017-12-26T21:29:18.493Z,3.97
2017-12-26T21:31:48.197Z,4.15
2017-12-26T21:34:17.926Z,5.70
2017-12-26T21:36:47.625Z,3.55
2017-12-26T21:39:17.188Z,5.43
2017-12-26T21:41:46.922Z,4.90
2017-12-26T21:44:16.751Z,4.00
2017-12-26T21:46:46.283Z,4.12
2017-12-26T21:49:15.821Z,4.45
2017-12-26T21:51:45.405Z,6.10
2017-12-26T21:54:14.929Z,6.03
2017-12-26T21:56:44.642Z,5.90
2017-12-26T21:59:14.389Z,8.38
2017-12-26T22:01:44.094Z,10.73
2017-12-26T22:04:13.923Z,14.25
2017-12-26T22:06:43.638Z,19.73
2017-12-26T22:09:13.375Z,13.35
2017-12-26T22:11:43.101Z,9.00
2017-12-26T22:14:12.829Z,8.68
2017-12-26T22:16:42.537Z,6.87
2017-12-26T22:19:12.271Z,7.75
2017-12-26T22:21:41.997Z,4.00
2017-12-26T22:24:11.809Z,4.68
2017-12-26T22:26:41.518Z,5.55
2017-12-26T22:29:11.224Z,7.10
2017-12-26T22:31:40.959Z,9.90
2017-12-26T22:34:10.685Z,4.50
2017-12-26T22:36:40.409Z,4.50
2017-12-26T22:39:10.213Z,4.53
2017-12-26T22:41:39.934Z,8.45
2017-12-26T22:44:09.644Z,4.97
2017-12-26T22:46:39.568Z,4.35
2017-12-26T22:49:09.327Z,4.30
2017-12-26T22:51:39.067Z,7.65
2017-12-26T22:54:08.784Z,5.12
2017-12-26T22:56:38.511Z,4.82
2017-12-26T22:59:08.037Z,4.57
2017-12-26T23:01:37.762Z,11.30
2017-12-26T23:04:07.302Z,4.40
2017-12-26T23:06:36.844Z,5.40
2017-12-26T23:09:06.571Z,5.30
2017-12-26T23:11:36.341Z,11.43
2017-12-26T23:14:11.375Z,5.47
2017-12-26T23:16:46.661Z,6.05
2017-12-26T23:19:16.186Z,6.82
2017-12-26T23:21:46.009Z,5.47
2017-12-26T23:24:21.374Z,8.27
2017-12-26T23:26:56.606Z,8.27
2017-12-26T23:29:42.812Z,7.03
2017-12-26T23:32:18.141Z,8.07
2017-12-26T23:34:53.509Z,9.52
2017-12-26T23:37:28.927Z,6.78
2017-12-26T23:40:04.145Z,7.65
2017-12-26T23:42:39.357Z,6.78
2017-12-26T23:45:14.598Z,8.50
2017-12-26T23:47:49.801Z,10.18
2017-12-26T23:50:25.105Z,7.32
2017-12-26T23:53:00.462Z,8.80
2017-12-26T23:55:35.937Z,7.97
2017-12-26T23:58:11.173Z,6.62
